Time;durP1;ratioP1;P1;durP2;ratioP2;P2;SDS_P1;SDS_P2;PMS_P1;PMS_P2;Temp;Humidity;BMP_temperature;BMP_pressure;BME280_temperature;BME280_humidity;BME280_pressure;Samples;Min_cycle;Max_cycle;Signal;HPM_P1;HPM_P2
2023/05/19 00:00:56;;;;;;;4.40;3.70;;;;;;;9.88;100.00;97527.84;5031553;27;20248;-67
2023/05/19 00:03:25;;;;;;;6.13;3.40;;;;;;;9.89;100.00;97528.63;5073502;28;20229;-66
2023/05/19 00:05:54;;;;;;;5.53;3.37;;;;;;;9.81;100.00;97524.19;5053395;27;20224;-66
2023/05/19 00:08:23;;;;;;;3.93;3.53;;;;;;;9.79;100.00;97523.53;5069071;27;20205;-66
2023/05/19 00:10:53;;;;;;;4.73;3.20;;;;;;;9.65;100.00;97493.31;5068623;28;20955;-67
2023/05/19 00:13:21;;;;;;;3.93;3.53;;;;;;;9.77;100.00;97513.13;5069095;27;20353;-66
2023/05/19 00:15:50;;;;;;;5.70;3.87;;;;;;;9.68;100.00;97512.34;5048468;27;20313;-66
2023/05/19 00:18:19;;;;;;;5.37;3.90;;;;;;;9.69;100.00;97505.22;5065194;27;20281;-67
2023/05/19 00:20:47;;;;;;;4.87;3.00;;;;;;;9.72;100.00;97507.53;5053292;27;20344;-65
2023/05/19 00:23:14;;;;;;;5.03;3.93;;;;;;;9.73;100.00;97511.00;5073430;28;20294;-66
2023/05/19 00:25:42;;;;;;;4.43;3.30;;;;;;;9.69;100.00;97518.47;5066604;27;20201;-65
2023/05/19 00:28:11;;;;;;;3.97;3.57;;;;;;;9.64;100.00;97512.81;5067729;28;20194;-66
2023/05/19 00:30:38;;;;;;;4.73;3.73;;;;;;;9.62;100.00;97507.72;5069811;27;21323;-65
2023/05/19 00:33:06;;;;;;;7.53;4.30;;;;;;;9.63;100.00;97509.38;5032811;27;20532;-66
2023/05/19 00:35:34;;;;;;;5.27;3.20;;;;;;;9.61;100.00;97508.72;5049187;28;20205;-66
2023/05/19 00:38:01;;;;;;;4.77;3.67;;;;;;;9.56;100.00;97506.56;5069548;28;20206;-66
2023/05/19 00:40:29;;;;;;;6.03;3.70;;;;;;;9.58;100.00;97506.41;5069294;27;20200;-67
2023/05/19 00:42:57;;;;;;;7.37;4.00;;;;;;;9.59;100.00;97504.59;5070624;27;20206;-66
2023/05/19 00:45:26;;;;;;;3.57;3.17;;;;;;;9.50;100.00;97499.31;5066699;28;20730;-66
2023/05/19 00:47:55;;;;;;;5.53;3.27;;;;;;;9.49;100.00;97500.31;5037678;27;20386;-65
2023/05/19 00:50:23;;;;;;;8.93;3.50;;;;;;;9.52;100.00;97493.88;5069969;28;20221;-66
2023/05/19 00:52:51;;;;;;;6.17;3.77;;;;;;;9.45;100.00;97483.13;5049520;27;20296;-66
2023/05/19 00:55:20;;;;;;;4.87;3.47;;;;;;;9.50;100.00;97494.03;5072339;27;21211;-67
2023/05/19 00:57:48;;;;;;;4.67;3.87;;;;;;;9.42;100.00;97491.41;5074572;27;20312;-65
2023/05/19 01:00:17;;;;;;;6.20;3.60;;;;;;;9.45;100.00;97488.44;5071373;27;20308;-67
2023/05/19 01:02:46;;;;;;;7.13;3.80;;;;;;;9.48;100.00;97487.28;5056790;27;20282;-65
2023/05/19 01:05:14;;;;;;;5.33;3.70;;;;;;;9.43;100.00;97490.41;5057824;27;20930;-66
2023/05/19 01:07:42;;;;;;;4.07;3.67;;;;;;;9.43;100.00;97492.22;5046726;28;20215;-66
2023/05/19 01:10:10;;;;;;;3.33;3.03;;;;;;;9.40;100.00;97486.28;5065066;28;20224;-65
2023/05/19 01:12:38;;;;;;;4.60;3.43;;;;;;;9.38;100.00;97487.47;5072181;27;20199;-66
2023/05/19 01:15:07;;;;;;;4.43;3.20;;;;;;;9.36;100.00;97486.81;5069134;28;20190;-67
2023/05/19 01:17:39;;;;;;;3.83;3.40;;;;;;;9.33;100.00;97484.50;5066815;27;20574;-66
2023/05/19 01:20:14;;;;;;;5.20;3.20;;;;;;;9.34;100.00;97486.97;5027277;27;20828;-67
2023/05/19 01:22:58;;;;;;;4.13;3.13;;;;;;;9.30;100.00;97488.28;5052430;27;20697;-66
2023/05/19 01:25:42;;;;;;;6.37;4.00;;;;;;;9.25;100.00;97490.63;5066016;27;20297;-65
2023/05/19 01:28:25;;;;;;;5.87;3.63;;;;;;;9.23;100.00;97480.19;5072164;27;20883;-68
2023/05/19 01:30:55;;;;;;;4.23;3.63;;;;;;;9.17;100.00;97486.16;5070896;27;20332;-67
2023/05/19 01:33:23;;;;;;;5.33;3.73;;;;;;;9.18;100.00;97492.28;5072073;28;20724;-66
2023/05/19 01:35:51;;;;;;;8.17;3.93;;;;;;;9.13;100.00;97482.19;5033386;27;20206;-67
2023/05/19 01:38:20;;;;;;;11.17;3.83;;;;;;;9.07;100.00;97483.69;5048436;28;20302;-66
2023/05/19 01:40:49;;;;;;;3.90;3.50;;;;;;;9.13;100.00;97492.78;5052062;28;20367;-66
2023/05/19 01:43:19;;;;;;;5.47;3.03;;;;;;;9.07;100.00;97485.53;5061995;27;20428;-67
2023/05/19 01:45:47;;;;;;;6.23;3.60;;;;;;;9.05;100.00;97490.97;5068549;27;21010;-67
2023/05/19 01:48:17;;;;;;;7.97;3.90;;;;;;;9.09;100.00;97480.88;5068362;27;20209;-67
2023/05/19 01:50:48;;;;;;;6.57;4.03;;;;;;;9.08;100.00;97481.88;5058097;27;20523;-66
2023/05/19 01:53:16;;;;;;;10.67;3.70;;;;;;;9.03;100.00;97481.56;5056037;28;20212;-67
2023/05/19 01:55:46;;;;;;;5.00;3.40;;;;;;;8.86;100.00;97449.03;5046816;27;20202;-67
2023/05/19 01:58:18;;;;;;;6.30;3.50;;;;;;;8.92;100.00;97473.00;5049597;27;20206;-67
2023/05/19 02:00:52;;;;;;;7.07;3.70;;;;;;;8.87;100.00;97474.47;5068722;28;21232;-67
2023/05/19 02:03:42;;;;;;;7.80;3.97;;;;;;;8.78;100.00;97482.41;5069288;28;20212;-66
2023/05/19 02:06:19;;;;;;;3.87;3.00;;;;;;;8.65;100.00;97472.31;5069754;27;20202;-66
2023/05/19 02:08:52;;;;;;;7.67;4.50;;;;;;;8.39;100.00;97433.66;5025268;27;20331;-64
2023/05/19 02:11:25;;;;;;;3.80;3.40;;;;;;;8.61;100.00;97471.00;5066677;27;20260;-66
2023/05/19 02:13:56;;;;;;;5.90;3.87;;;;;;;8.62;100.00;97467.38;5050802;28;20627;-66
2023/05/19 02:16:28;;;;;;;4.40;3.70;;;;;;;8.58;100.00;97470.50;5066709;27;20202;-67
2023/05/19 02:18:58;;;;;;;4.17;3.63;;;;;;;8.56;100.00;97467.19;5071556;27;20201;-66
2023/05/19 02:21:26;;;;;;;6.03;3.57;;;;;;;8.53;100.00;97471.00;5070256;27;20607;-65
2023/05/19 02:23:53;;;;;;;4.63;3.27;;;;;;;8.44;100.00;97464.00;5033541;27;20804;-67
2023/05/19 02:26:21;;;;;;;6.03;3.60;;;;;;;8.43;100.00;97465.84;5052960;27;20893;-66
2023/05/19 02:28:49;;;;;;;4.13;3.83;;;;;;;8.30;100.00;97457.56;5046699;27;20348;-65
2023/05/19 02:31:16;;;;;;;8.23;4.13;;;;;;;8.01;100.00;97438.53;5070607;27;20233;-65
2023/05/19 02:33:44;;;;;;;4.00;3.10;;;;;;;7.91;100.00;97422.84;5073122;27;20233;-66
2023/05/19 02:36:13;;;;;;;7.40;4.13;;;;;;;8.11;100.00;97456.88;5068647;28;20259;-65
2023/05/19 02:38:41;;;;;;;8.50;3.93;;;;;;;8.03;100.00;97462.94;5063217;28;20716;-64
2023/05/19 02:41:09;;;;;;;9.67;3.50;;;;;;;8.01;100.00;97464.91;5022190;28;20213;-65
2023/05/19 02:43:37;;;;;;;5.47;3.63;;;;;;;7.99;100.00;97468.72;5049058;27;20212;-65
2023/05/19 02:46:04;;;;;;;5.33;3.40;;;;;;;8.01;100.00;97467.56;5066645;27;20202;-66
2023/05/19 02:48:32;;;;;;;6.00;3.57;;;;;;;8.05;100.00;97466.25;5070702;27;20719;-66
2023/05/19 02:50:59;;;;;;;4.13;3.37;;;;;;;8.15;100.00;97455.56;5065111;27;20222;-66
2023/05/19 02:53:28;;;;;;;5.83;3.90;;;;;;;8.24;100.00;97466.97;5071121;28;20304;-67
2023/05/19 02:55:56;;;;;;;4.20;3.73;;;;;;;8.32;100.00;97456.41;5011221;27;20212;-66
2023/05/19 02:58:24;;;;;;;3.67;3.37;;;;;;;8.35;100.00;97457.91;5067794;28;20280;-66
2023/05/19 03:00:51;;;;;;;4.70;3.40;;;;;;;8.44;100.00;97456.94;5047672;27;20240;-66
2023/05/19 03:03:19;;;;;;;9.27;3.70;;;;;;;8.51;100.00;97457.09;5066173;27;20263;-66
2023/05/19 03:05:47;;;;;;;5.23;3.20;;;;;;;8.53;100.00;97455.16;5070356;28;20217;-66
2023/05/19 03:08:14;;;;;;;6.07;4.20;;;;;;;8.56;100.00;97452.19;5064886;28;20312;-66
2023/05/19 03:10:43;;;;;;;5.57;3.70;;;;;;;8.58;100.00;97455.50;5031577;27;20888;-64
2023/05/19 03:13:11;;;;;;;6.50;3.97;;;;;;;8.40;100.00;97419.44;5023801;28;20320;-64
2023/05/19 03:15:38;;;;;;;8.13;4.80;;;;;;;8.59;100.00;97448.38;5046679;27;20254;-65
2023/05/19 03:18:06;;;;;;;8.70;3.93;;;;;;;8.61;100.00;97451.66;5071685;28;20189;-65
2023/05/19 03:20:34;;;;;;;4.97;3.90;;;;;;;8.60;100.00;97453.50;5067900;27;20225;-65
2023/05/19 03:23:01;;;;;;;6.60;4.23;;;;;;;8.60;100.00;97445.59;5071030;28;20292;-66
2023/05/19 03:25:30;;;;;;;9.13;4.00;;;;;;;8.65;100.00;97453.84;5033630;28;20198;-68
2023/05/19 03:27:59;;;;;;;4.73;3.30;;;;;;;8.68;100.00;97456.13;5050002;27;20296;-66
2023/05/19 03:30:27;;;;;;;6.90;3.90;;;;;;;8.71;100.00;97464.72;5049440;28;20220;-67
2023/05/19 03:32:54;;;;;;;6.03;3.87;;;;;;;8.72;100.00;97461.09;5068887;28;20354;-66
2023/05/19 03:35:22;;;;;;;3.50;3.20;;;;;;;8.73;100.00;97458.28;5068667;27;20487;-67
2023/05/19 03:37:50;;;;;;;5.00;3.60;;;;;;;8.70;100.00;97458.59;5069678;28;20799;-66
2023/05/19 03:40:18;;;;;;;7.80;4.07;;;;;;;8.76;100.00;97462.41;5064449;28;20426;-68
2023/05/19 03:42:45;;;;;;;8.33;4.17;;;;;;;8.77;100.00;97456.97;5016795;28;20327;-64
2023/05/19 03:45:14;;;;;;;4.93;3.50;;;;;;;8.76;100.00;97454.47;5026859;28;21403;-66
2023/05/19 03:47:42;;;;;;;5.60;3.70;;;;;;;8.82;100.00;97459.09;5071525;28;20295;-67
2023/05/19 03:50:10;;;;;;;6.77;3.97;;;;;;;8.81;100.00;97457.44;5065890;28;20214;-66
2023/05/19 03:52:38;;;;;;;4.43;3.50;;;;;;;8.71;100.00;97435.66;5069106;28;20663;-64
2023/05/19 03:55:07;;;;;;;6.27;3.70;;;;;;;8.81;100.00;97460.94;5071358;28;20221;-65
2023/05/19 03:57:35;;;;;;;4.70;3.40;;;;;;;8.87;100.00;97466.53;5023502;28;20306;-65
2023/05/19 04:00:04;;;;;;;9.67;3.00;;;;;;;8.84;100.00;97470.31;5034521;28;20658;-65
2023/05/19 04:02:33;;;;;;;8.43;5.73;;;;;;;8.80;100.00;97461.09;5070284;28;20264;-66
2023/05/19 04:05:03;;;;;;;5.57;3.97;;;;;;;8.81;100.00;97473.31;5073572;28;20335;-65
2023/05/19 04:07:31;;;;;;;6.80;3.33;;;;;;;8.81;100.00;97471.50;5071762;28;20598;-66
2023/05/19 04:09:59;;;;;;;3.63;3.27;;;;;;;8.79;100.00;97473.47;5069868;28;20233;-65
2023/05/19 04:12:27;;;;;;;3.70;3.40;;;;;;;8.66;100.00;97476.63;5017731;28;21229;-65
2023/05/19 04:14:54;;;;;;;3.60;3.30;;;;;;;8.73;100.00;97476.78;5047124;28;20201;-65
2023/05/19 04:17:25;;;;;;;3.73;2.90;;;;;;;8.69;100.00;97471.00;5058484;28;20528;-66
2023/05/19 04:19:54;;;;;;;4.23;3.67;;;;;;;8.80;100.00;97467.22;5071327;28;20540;-66
2023/05/19 04:22:22;;;;;;;6.67;4.27;;;;;;;8.78;100.00;97468.34;5065736;28;20397;-66
2023/05/19 04:24:51;;;;;;;4.97;3.57;;;;;;;8.72;100.00;97474.31;5047251;28;20282;-67
2023/05/19 04:27:20;;;;;;;5.10;3.57;;;;;;;8.71;100.00;97475.28;5053422;28;20401;-70
2023/05/19 04:29:48;;;;;;;7.30;3.23;;;;;;;8.63;100.00;97474.31;5007090;28;20821;-68
2023/05/19 04:32:17;;;;;;;5.43;3.47;;;;;;;8.50;100.00;97448.38;5050778;28;20664;-67
2023/05/19 04:34:45;;;;;;;5.17;3.37;;;;;;;8.70;100.00;97479.72;5069116;28;20206;-67
2023/05/19 04:37:15;;;;;;;5.83;3.40;;;;;;;8.58;100.00;97459.94;5069824;28;20379;-67
2023/05/19 04:39:44;;;;;;;4.37;3.83;;;;;;;8.74;100.00;97481.09;5065265;28;20206;-68
2023/05/19 04:42:12;;;;;;;5.60;3.40;;;;;;;8.97;100.00;97483.03;5073799;27;20950;-68
2023/05/19 04:44:40;;;;;;;4.03;3.23;;;;;;;9.01;100.00;97481.72;5022431;28;20255;-67
2023/05/19 04:47:09;;;;;;;8.10;4.00;;;;;;;9.02;100.00;97479.91;5038862;27;20208;-67
2023/05/19 04:49:38;;;;;;;6.07;3.67;;;;;;;9.20;100.00;97482.38;5070155;27;20620;-67
2023/05/19 04:52:09;;;;;;;4.37;3.60;;;;;;;9.32;100.00;97477.56;5076540;27;20549;-67
2023/05/19 04:54:40;;;;;;;4.07;3.73;;;;;;;9.44;100.00;97478.00;5068066;27;20655;-65
2023/05/19 04:57:09;;;;;;;7.17;3.63;;;;;;;9.53;100.00;97472.53;5070686;27;20198;-67
2023/05/19 04:59:37;;;;;;;4.47;3.63;;;;;;;9.66;100.00;97487.03;5028995;27;21569;-64
2023/05/19 05:02:05;;;;;;;4.07;3.60;;;;;;;9.63;100.00;97471.50;5053747;28;20225;-67
2023/05/19 05:04:33;;;;;;;4.63;3.20;;;;;;;9.69;100.00;97481.41;5052299;27;20635;-65
2023/05/19 05:07:01;;;;;;;4.90;3.60;;;;;;;9.73;100.00;97472.13;5072121;27;20701;-66
2023/05/19 05:09:28;;;;;;;3.90;3.60;;;;;;;9.67;100.00;97470.19;5066671;27;20580;-64
2023/05/19 05:11:58;;;;;;;4.73;3.47;;;;;;;9.61;100.00;97474.34;5070894;28;20461;-66
2023/05/19 05:14:27;;;;;;;6.13;4.00;;;;;;;9.62;100.00;97465.41;5055221;28;21505;-65
2023/05/19 05:16:55;;;;;;;7.17;3.53;;;;;;;9.47;100.00;97444.13;4995275;28;21045;-66
2023/05/19 05:19:24;;;;;;;6.67;3.57;;;;;;;9.32;100.00;97430.78;5049272;27;21095;-65
2023/05/19 05:21:52;;;;;;;4.20;3.80;;;;;;;9.68;100.00;97470.00;5072346;28;20251;-66
2023/05/19 05:24:20;;;;;;;4.37;3.63;;;;;;;9.69;100.00;97461.06;5069664;28;20656;-64
2023/05/19 05:26:48;;;;;;;5.17;3.50;;;;;;;9.72;100.00;97459.06;5073221;28;20297;-66
2023/05/19 05:29:17;;;;;;;6.10;3.77;;;;;;;9.83;100.00;97462.16;5074342;27;20285;-66
2023/05/19 05:31:45;;;;;;;4.50;3.77;;;;;;;10.01;100.00;97455.78;5004356;27;20293;-66
2023/05/19 05:34:13;;;;;;;4.67;3.67;;;;;;;9.92;100.00;97428.56;5065443;28;20929;-66
2023/05/19 05:36:41;;;;;;;4.83;3.57;;;;;;;10.21;100.00;97453.53;5064507;27;20205;-66
2023/05/19 05:39:08;;;;;;;5.13;3.70;;;;;;;10.43;100.00;97443.16;5070376;28;20288;-65
2023/05/19 05:41:36;;;;;;;6.80;3.40;;;;;;;10.56;100.00;97453.16;5071640;28;20361;-67
2023/05/19 05:44:04;;;;;;;4.50;4.10;;;;;;;10.59;100.00;97459.91;5073170;27;20829;-65
2023/05/19 05:46:33;;;;;;;6.57;3.50;;;;;;;10.56;100.00;97450.53;5015574;27;20215;-66
2023/05/19 05:49:02;;;;;;;4.47;3.87;;;;;;;10.56;100.00;97459.28;5053019;27;20220;-66
2023/05/19 05:51:31;;;;;;;6.17;4.33;;;;;;;10.69;100.00;97455.22;5045843;27;21170;-68
2023/05/19 05:54:00;;;;;;;4.03;3.40;;;;;;;10.91;100.00;97455.38;5070511;28;20337;-66
2023/05/19 05:56:28;;;;;;;6.07;4.00;;;;;;;11.16;100.00;97458.59;5066498;27;20573;-65
2023/05/19 05:58:56;;;;;;;7.67;3.60;;;;;;;11.58;100.00;97465.16;5074193;27;20208;-67
2023/05/19 06:01:23;;;;;;;6.37;4.30;;;;;;;11.28;100.00;97457.19;5069430;27;20241;-65
2023/05/19 06:03:52;;;;;;;5.93;3.70;;;;;;;11.09;100.00;97458.53;5021920;28;20239;-65
2023/05/19 06:06:20;;;;;;;4.40;3.80;;;;;;;10.84;100.00;97463.22;5058843;27;20201;-65
2023/05/19 06:08:47;;;;;;;5.00;3.80;;;;;;;10.94;100.00;97462.94;5066086;28;20206;-66
2023/05/19 06:11:15;;;;;;;5.67;4.00;;;;;;;11.24;100.00;97461.19;5071186;27;20302;-65
2023/05/19 06:13:43;;;;;;;5.00;4.40;;;;;;;11.55;100.00;97457.56;5069812;27;20733;-66
2023/05/19 06:16:10;;;;;;;5.07;3.97;;;;;;;11.63;100.00;97456.63;5073191;27;20204;-65
2023/05/19 06:18:38;;;;;;;4.23;3.80;;;;;;;11.52;100.00;97449.13;5017353;28;20873;-65
2023/05/19 06:21:09;;;;;;;6.80;3.83;;;;;;;11.45;100.00;97454.34;5076643;28;20294;-64
2023/05/19 06:23:36;;;;;;;4.23;3.80;;;;;;;11.38;100.00;97456.06;5054641;27;20757;-65
2023/05/19 06:26:04;;;;;;;6.37;4.07;;;;;;;11.61;100.00;97450.66;5046933;28;20214;-64
2023/05/19 06:28:32;;;;;;;4.43;4.03;;;;;;;11.65;100.00;97448.50;5067508;28;20845;-65
2023/05/19 06:31:00;;;;;;;4.87;3.83;;;;;;;11.67;100.00;97436.66;5054615;27;20226;-65
2023/05/19 06:33:27;;;;;;;4.67;4.23;;;;;;;11.88;100.00;97441.22;5069174;27;20230;-64
2023/05/19 06:35:56;;;;;;;3.67;3.37;;;;;;;12.02;100.00;97444.88;5021893;27;20296;-64
2023/05/19 06:38:25;;;;;;;4.73;3.77;;;;;;;12.30;100.00;97441.50;5049456;28;20350;-63
2023/05/19 06:40:53;;;;;;;4.87;3.87;;;;;;;12.36;100.00;97450.56;5072116;28;20531;-66
2023/05/19 06:43:20;;;;;;;6.13;4.60;;;;;;;12.63;100.00;97448.16;5067491;28;20208;-63
2023/05/19 06:45:48;;;;;;;6.40;3.53;;;;;;;12.67;100.00;97459.22;5047950;27;20324;-64
2023/05/19 06:48:15;;;;;;;6.43;4.10;;;;;;;12.61;100.00;97447.50;5069456;28;20292;-66
2023/05/19 06:50:43;;;;;;;6.27;4.07;;;;;;;12.48;100.00;97460.69;5016636;27;20602;-65
2023/05/19 06:53:12;;;;;;;5.67;3.47;;;;;;;12.73;100.00;97461.13;5065636;28;20230;-64
2023/05/19 06:55:41;;;;;;;4.47;4.07;;;;;;;12.82;100.00;97459.97;5056508;27;20202;-65
2023/05/19 06:58:25;;;;;;;4.77;3.90;;;;;;;12.72;100.00;97455.00;5067566;28;20210;-67
2023/05/19 07:00:53;;;;;;;6.27;5.67;;;;;;;12.90;100.00;97455.56;5048089;27;20235;-65
2023/05/19 07:03:20;;;;;;;6.93;3.70;;;;;;;13.01;100.00;97455.81;5072787;28;20750;-65
2023/05/19 07:05:48;;;;;;;4.33;3.97;;;;;;;13.23;100.00;97446.97;5019358;28;20383;-64
2023/05/19 07:08:16;;;;;;;4.00;3.60;;;;;;;13.52;100.00;97442.47;5057785;27;20211;-64
2023/05/19 07:10:45;;;;;;;6.70;4.40;;;;;;;13.55;100.00;97442.91;5064880;27;20488;-65
2023/05/19 07:13:12;;;;;;;8.73;7.13;;;;;;;13.38;100.00;97433.56;5071914;28;20201;-63
2023/05/19 07:15:40;;;;;;;3.97;3.67;;;;;;;13.16;100.00;97433.66;5046518;28;20847;-65
2023/05/19 07:18:07;;;;;;;4.90;3.57;;;;;;;13.22;100.00;97430.19;5070794;27;20641;-63
2023/05/19 07:20:35;;;;;;;5.57;3.60;;;;;;;13.57;100.00;97434.72;5065942;28;20849;-65
2023/05/19 07:23:04;;;;;;;4.30;3.43;;;;;;;13.83;100.00;97436.72;5018996;28;20202;-65
2023/05/19 07:25:32;;;;;;;3.50;2.80;;;;;;;13.95;98.76;97439.59;5048168;28;20473;-64
2023/05/19 07:28:01;;;;;;;3.40;3.10;;;;;;;14.13;100.00;97430.25;5050638;27;20667;-63
2023/05/19 07:30:28;;;;;;;3.70;3.40;;;;;;;14.06;100.00;97424.09;5069803;28;20564;-64
2023/05/19 07:32:56;;;;;;;4.57;3.57;;;;;;;13.69;100.00;97433.16;5049797;28;20206;-64
2023/05/19 07:35:25;;;;;;;4.30;3.30;;;;;;;13.35;100.00;97433.94;5071501;28;20320;-67
2023/05/19 07:37:53;;;;;;;3.20;2.90;;;;;;;13.49;100.00;97437.56;5022872;27;20321;-65
2023/05/19 07:40:20;;;;;;;3.33;2.87;;;;;;;13.72;100.00;97429.25;5045382;28;20778;-64
2023/05/19 07:42:49;;;;;;;2.87;2.67;;;;;;;13.73;97.86;97421.09;5073749;28;21693;-64
2023/05/19 07:45:18;;;;;;;7.63;3.37;;;;;;;13.69;100.00;97419.00;5068035;28;20242;-64
2023/05/19 07:47:46;;;;;;;3.23;2.90;;;;;;;13.30;100.00;97419.41;5065248;28;20303;-64
2023/05/19 07:50:13;;;;;;;4.57;3.53;;;;;;;13.11;100.00;97414.78;5067625;28;20755;-64
2023/05/19 07:52:41;;;;;;;3.30;2.83;;;;;;;13.06;100.00;97425.16;5015964;28;20316;-64
2023/05/19 07:55:09;;;;;;;3.77;3.37;;;;;;;12.92;100.00;97397.69;5026086;28;20227;-63
2023/05/19 07:57:36;;;;;;;3.53;2.93;;;;;;;13.31;100.00;97417.56;5063428;28;20256;-65
2023/05/19 08:00:06;;;;;;;3.53;3.23;;;;;;;13.60;100.00;97415.69;5070301;28;20319;-63
2023/05/19 08:02:35;;;;;;;4.97;3.00;;;;;;;13.88;100.00;97409.47;5068723;28;20225;-64
2023/05/19 08:05:03;;;;;;;3.40;3.10;;;;;;;13.75;98.27;97408.41;5070694;28;20205;-64
2023/05/19 08:07:31;;;;;;;3.27;3.03;;;;;;;14.51;98.79;97410.22;5065719;28;20444;-64
2023/05/19 08:09:58;;;;;;;3.67;3.37;;;;;;;14.96;93.31;97418.44;5011862;28;20205;-65
2023/05/19 08:12:26;;;;;;;3.20;2.80;;;;;;;14.99;89.54;97388.72;5055172;28;20495;-66
2023/05/19 08:14:54;;;;;;;3.10;2.80;;;;;;;15.16;88.84;97406.94;5065182;28;20314;-66
2023/05/19 08:17:22;;;;;;;3.07;2.47;;;;;;;15.15;88.07;97402.63;5067192;28;20198;-63
2023/05/19 08:19:52;;;;;;;3.00;2.73;;;;;;;15.18;89.13;97403.06;5069667;28;20775;-66
2023/05/19 08:22:19;;;;;;;3.20;2.90;;;;;;;15.74;89.39;97405.38;5070944;28;20438;-63
2023/05/19 08:24:48;;;;;;;4.27;2.67;;;;;;;16.20;84.10;97396.31;5024003;27;20201;-62
2023/05/19 08:27:16;;;;;;;2.97;2.77;;;;;;;16.22;78.79;97401.44;5048878;27;20801;-64
2023/05/19 08:29:43;;;;;;;3.37;2.87;;;;;;;15.72;79.35;97408.22;5075016;27;20318;-62
2023/05/19 08:32:11;;;;;;;2.80;2.60;;;;;;;15.29;84.14;97409.59;5068994;27;20320;-64
2023/05/19 08:34:40;;;;;;;3.67;2.80;;;;;;;15.01;88.96;97396.50;5073083;27;20231;-63
2023/05/19 08:37:09;;;;;;;3.27;2.47;;;;;;;14.85;88.78;97379.91;5033145;27;20226;-62
2023/05/19 08:39:37;;;;;;;3.03;2.80;;;;;;;14.70;87.91;97405.91;4991622;27;20652;-64
2023/05/19 08:42:06;;;;;;;3.53;3.23;;;;;;;15.24;89.56;97392.56;5049028;28;20222;-67
2023/05/19 08:44:34;;;;;;;4.00;2.80;;;;;;;15.75;82.58;97397.13;5057906;27;20853;-63
2023/05/19 08:47:03;;;;;;;3.13;2.83;;;;;;;15.88;80.82;97384.75;5054130;28;20206;-64
2023/05/19 08:49:33;;;;;;;3.37;2.77;;;;;;;15.26;82.60;97367.28;5070154;27;20206;-66
2023/05/19 08:52:08;;;;;;;2.77;2.43;;;;;;;15.54;89.68;97378.72;5072632;27;20896;-65
2023/05/19 08:54:43;;;;;;;3.90;3.23;;;;;;;15.82;83.15;97382.91;5016404;27;20929;-64
2023/05/19 08:57:11;;;;;;;3.90;2.90;;;;;;;15.76;83.63;97382.72;5050436;27;20798;-65
2023/05/19 08:59:39;;;;;;;3.77;2.63;;;;;;;16.00;77.13;97374.22;5062929;27;20210;-65
2023/05/19 09:02:09;;;;;;;3.30;2.27;;;;;;;16.07;80.18;97372.31;5056378;27;20257;-62
2023/05/19 09:04:36;;;;;;;3.20;2.80;;;;;;;16.14;79.61;97373.13;5071457;27;20357;-63
2023/05/19 09:07:04;;;;;;;3.80;2.87;;;;;;;16.02;80.18;97366.81;5075659;27;20202;-63
2023/05/19 09:09:32;;;;;;;3.30;3.10;;;;;;;16.06;77.71;97354.66;5068798;27;20385;-65
2023/05/19 09:12:01;;;;;;;2.80;2.53;;;;;;;15.96;79.35;97368.50;5012127;28;20313;-66
2023/05/19 09:14:29;;;;;;;4.13;2.93;;;;;;;15.85;81.36;97369.13;5058705;27;20236;-64
2023/05/19 09:16:57;;;;;;;3.30;3.00;;;;;;;16.01;82.05;97363.34;5054592;28;20317;-65
2023/05/19 09:19:28;;;;;;;3.00;2.77;;;;;;;15.67;85.61;97361.81;5072763;27;20400;-63
2023/05/19 09:22:00;;;;;;;4.50;2.80;;;;;;;16.12;88.30;97358.31;5074470;27;20253;-64
2023/05/19 09:24:28;;;;;;;4.47;3.20;;;;;;;16.67;80.98;97348.84;5073120;27;20233;-64
2023/05/19 09:26:56;;;;;;;2.33;2.13;;;;;;;16.87;79.23;97344.16;5033979;27;20340;-65
2023/05/19 09:29:27;;;;;;;3.37;2.40;;;;;;;16.83;74.72;97347.47;5036260;28;21325;-63
2023/05/19 09:31:59;;;;;;;3.90;3.60;;;;;;;17.00;74.77;97345.91;5070755;27;21663;-63
2023/05/19 09:34:27;;;;;;;3.00;2.80;;;;;;;17.12;75.14;97346.00;5052798;27;20202;-64
2023/05/19 09:36:56;;;;;;;4.67;2.80;;;;;;;17.06;76.25;97339.69;5071194;27;20817;-62
2023/05/19 09:39:24;;;;;;;4.43;3.50;;;;;;;16.99;76.31;97340.78;5063517;27;20199;-64
2023/05/19 09:41:53;;;;;;;3.07;2.80;;;;;;;16.95;74.60;97345.75;5018232;27;20737;-65
2023/05/19 09:44:27;;;;;;;4.40;2.60;;;;;;;17.09;76.41;97335.75;5036523;27;20290;-62
2023/05/19 09:46:57;;;;;;;2.80;2.53;;;;;;;17.56;75.00;97345.09;5070407;27;20205;-64
2023/05/19 09:49:28;;;;;;;4.93;2.70;;;;;;;17.29;74.87;97332.84;5055292;27;20493;-67
2023/05/19 09:51:56;;;;;;;3.03;2.70;;;;;;;17.64;72.19;97336.75;5065701;28;20222;-64
2023/05/19 09:54:26;;;;;;;4.00;2.70;;;;;;;17.46;70.73;97337.59;5074642;27;20254;-66
2023/05/19 09:56:58;;;;;;;5.50;2.67;;;;;;;17.32;71.33;97327.06;5022552;27;21121;-66
2023/05/19 09:59:27;;;;;;;3.73;2.40;;;;;;;17.63;72.78;97333.28;5057016;27;20241;-65
2023/05/19 10:02:00;;;;;;;2.57;2.37;;;;;;;17.80;70.12;97319.22;5056893;27;20831;-64
2023/05/19 10:04:29;;;;;;;2.43;2.23;;;;;;;17.76;70.91;97328.78;5057806;27;20210;-64
2023/05/19 10:06:59;;;;;;;3.10;2.50;;;;;;;17.88;70.88;97321.59;5068977;27;20216;-65
2023/05/19 10:09:28;;;;;;;2.00;1.90;;;;;;;17.88;71.04;97326.16;5070362;27;20243;-65
2023/05/19 10:11:57;;;;;;;3.33;2.60;;;;;;;17.74;70.04;97320.16;5068807;28;20255;-65
2023/05/19 10:14:26;;;;;;;1.97;1.87;;;;;;;18.12;67.97;97313.66;5003648;27;20901;-65
2023/05/19 10:16:55;;;;;;;3.93;3.47;;;;;;;18.52;72.82;97312.19;5053493;27;21232;-66
2023/05/19 10:19:25;;;;;;;2.10;2.00;;;;;;;17.70;67.66;97287.63;5051714;28;20202;-63
2023/05/19 10:21:53;;;;;;;3.50;2.20;;;;;;;18.29;69.87;97313.81;5069005;27;20587;-66
2023/05/19 10:24:21;;;;;;;2.07;1.80;;;;;;;18.25;70.16;97306.44;5067398;27;20448;-64
2023/05/19 10:26:51;;;;;;;2.07;1.97;;;;;;;17.96;69.35;97303.53;5067794;28;20296;-68
2023/05/19 10:29:21;;;;;;;2.23;2.10;;;;;;;18.00;68.80;97307.44;5002371;27;20756;-65
2023/05/19 10:31:50;;;;;;;2.37;1.60;;;;;;;17.83;68.98;97304.56;5069580;28;20992;-65
2023/05/19 10:34:39;;;;;;;1.83;1.73;;;;;;;17.73;70.02;97287.16;5072224;27;21114;-67
2023/05/19 10:37:13;;;;;;;1.83;1.73;;;;;;;17.44;71.48;97319.09;5071518;28;20279;-64
2023/05/19 10:39:43;;;;;;;1.80;1.70;;;;;;;17.59;73.46;97307.94;5064592;27;20694;-65
2023/05/19 10:42:15;;;;;;;2.37;2.07;;;;;;;17.72;71.14;97306.97;5072264;28;20268;-66
2023/05/19 10:44:53;;;;;;;2.03;1.80;;;;;;;17.83;73.46;97304.56;5017588;27;20221;-71
2023/05/19 10:47:23;;;;;;;2.40;2.20;;;;;;;17.75;72.30;97292.31;5071158;28;20216;-66
2023/05/19 10:49:53;;;;;;;1.90;1.80;;;;;;;17.73;69.31;97294.41;5048372;27;22250;-65
2023/05/19 10:52:22;;;;;;;2.20;2.03;;;;;;;17.45;70.18;97283.22;5070657;27;20683;-66
2023/05/19 10:54:50;;;;;;;2.00;1.90;;;;;;;17.60;76.85;97293.50;5066447;27;20597;-63
2023/05/19 10:57:18;;;;;;;2.20;2.10;;;;;;;17.84;70.69;97290.94;5042226;28;20222;-66
2023/05/19 10:59:46;;;;;;;2.43;2.17;;;;;;;18.18;68.59;97290.44;5021162;27;20205;-65
2023/05/19 11:02:36;;;;;;;2.13;2.03;;;;;;;18.77;71.56;97287.84;5071246;27;20912;-65
2023/05/19 11:05:09;;;;;;;2.03;1.83;;;;;;;18.79;65.24;97291.09;5029351;28;20214;-66
2023/05/19 11:07:37;;;;;;;3.57;1.93;;;;;;;18.73;64.84;97289.31;5070280;28;20665;-66
2023/05/19 11:10:08;;;;;;;2.07;1.77;;;;;;;18.88;64.67;97285.38;5045091;28;20229;-66
2023/05/19 11:12:43;;;;;;;3.63;2.17;;;;;;;18.71;66.15;97280.69;5074395;27;20320;-65
2023/05/19 11:15:12;;;;;;;2.50;2.30;;;;;;;18.66;65.07;97294.84;5014617;28;20564;-64
2023/05/19 11:17:41;;;;;;;2.23;2.13;;;;;;;17.89;66.13;97284.91;5073260;27;20305;-66
2023/05/19 11:20:21;;;;;;;2.40;1.90;;;;;;;17.59;69.86;97280.34;5048098;27;20900;-66
2023/05/19 11:23:05;;;;;;;1.97;1.87;;;;;;;17.84;68.71;97282.91;5055282;28;20205;-67
2023/05/19 11:25:43;;;;;;;2.23;2.03;;;;;;;18.06;72.77;97277.06;5067399;27;20689;-66
2023/05/19 11:28:12;;;;;;;3.87;2.07;;;;;;;18.25;67.94;97279.63;5054452;28;20286;-68
2023/05/19 11:30:42;;;;;;;2.17;1.97;;;;;;;18.25;68.08;97268.91;5065763;28;20787;-67
2023/05/19 11:33:10;;;;;;;2.40;2.20;;;;;;;18.35;67.83;97269.97;5033665;27;20213;-69
2023/05/19 11:35:39;;;;;;;2.10;1.90;;;;;;;19.02;69.22;97265.28;5074819;27;20306;-67
2023/05/19 11:38:07;;;;;;;2.10;1.90;;;;;;;19.74;62.92;97262.38;5048207;27;21099;-67
2023/05/19 11:40:35;;;;;;;1.93;1.83;;;;;;;20.02;63.18;97271.50;5073731;28;20205;-67